createdAt,value
2022-12-17T00:03:45.899Z,2.20
2022-12-17T00:09:06.142Z,1.52
2022-12-17T00:14:25.786Z,1.98
2022-12-17T00:19:45.423Z,1.90
2022-12-17T00:25:05.204Z,1.92
2022-12-17T00:30:25.544Z,1.98
2022-12-17T00:35:45.204Z,1.90
2022-12-17T00:41:11.952Z,1.90
2022-12-17T00:46:31.761Z,1.85
2022-12-17T00:51:51.444Z,1.90
2022-12-17T00:57:11.092Z,1.90
2022-12-17T01:02:31.268Z,2.08
2022-12-17T01:07:51.292Z,1.75
2022-12-17T01:13:11.555Z,1.98
2022-12-17T01:18:37.951Z,2.20
2022-12-17T01:23:57.545Z,2.05
2022-12-17T01:29:17.340Z,1.90
2022-12-17T01:34:38.996Z,1.83
2022-12-17T01:39:58.711Z,1.65
2022-12-17T01:45:18.442Z,2.00
2022-12-17T01:50:38.249Z,1.70
2022-12-17T01:55:58.172Z,1.90
2022-12-17T02:01:18.083Z,2.30
2022-12-17T02:06:44.318Z,2.00
2022-12-17T02:12:56.499Z,1.65
2022-12-17T02:18:18.119Z,1.90
2022-12-17T02:24:13.468Z,1.75
2022-12-17T02:35:02.300Z,1.88
2022-12-17T02:40:22.503Z,1.98
2022-12-17T02:45:42.382Z,1.98
2022-12-17T02:51:02.349Z,1.90
2022-12-17T02:56:22.263Z,2.00
2022-12-17T03:01:41.961Z,2.00
2022-12-17T03:07:01.942Z,2.00
2022-12-17T03:12:22.152Z,2.00
2022-12-17T03:17:41.732Z,1.65
2022-12-17T03:23:01.451Z,1.98
2022-12-17T03:28:23.096Z,1.88
2022-12-17T03:33:42.771Z,2.00
2022-12-17T03:39:02.397Z,1.85
2022-12-17T03:44:22.607Z,1.60
2022-12-17T03:49:42.738Z,1.80
2022-12-17T03:55:02.498Z,1.75
2022-12-17T04:00:23.168Z,2.10
2022-12-17T04:05:42.865Z,2.00
2022-12-17T04:11:02.506Z,2.10
2022-12-17T04:16:22.391Z,1.90
2022-12-17T04:21:41.999Z,1.92
2022-12-17T04:27:01.787Z,1.80
2022-12-17T04:32:22.036Z,1.90
2022-12-17T04:37:41.829Z,2.00
2022-12-17T04:43:01.545Z,2.10
2022-12-17T04:48:22.629Z,2.00
2022-12-17T04:53:42.275Z,1.80
2022-12-17T04:59:01.893Z,1.83
2022-12-17T05:04:22.107Z,1.67
2022-12-17T05:09:43.112Z,1.80
2022-12-17T05:15:03.057Z,1.90
2022-12-17T05:20:23.196Z,1.83
2022-12-17T05:25:43.111Z,1.77
2022-12-17T05:31:10.100Z,2.25
2022-12-17T05:36:29.728Z,1.92
2022-12-17T05:41:49.351Z,1.80
2022-12-17T05:47:09.069Z,1.80
2022-12-17T05:52:28.843Z,1.70
2022-12-17T05:57:53.058Z,1.55
2022-12-17T06:03:19.578Z,1.73
2022-12-17T06:08:39.691Z,1.88
2022-12-17T06:13:59.404Z,1.70
2022-12-17T06:19:19.051Z,1.85
2022-12-17T06:24:42.755Z,1.88
2022-12-17T06:30:05.439Z,2.00
2022-12-17T06:35:25.811Z,1.83
2022-12-17T06:40:45.832Z,1.70
2022-12-17T06:46:05.513Z,1.83
2022-12-17T06:51:25.277Z,1.80
2022-12-17T06:56:45.564Z,1.60
2022-12-17T07:02:05.378Z,1.50
2022-12-17T07:07:25.264Z,1.88
2022-12-17T07:12:44.983Z,1.80
2022-12-17T07:18:15.458Z,1.75
2022-12-17T07:23:35.570Z,1.85
2022-12-17T07:28:55.453Z,1.85
2022-12-17T07:34:15.177Z,1.95
2022-12-17T07:39:34.913Z,2.05
2022-12-17T07:44:54.536Z,1.63
2022-12-17T07:50:14.319Z,2.00
2022-12-17T07:55:34.502Z,1.90
2022-12-17T08:00:54.375Z,1.92
2022-12-17T08:06:16.538Z,1.80
2022-12-17T08:11:36.183Z,1.88
2022-12-17T08:16:55.869Z,1.95
2022-12-17T08:22:16.584Z,1.90
2022-12-17T08:27:36.155Z,1.70
2022-12-17T08:32:55.949Z,1.80
2022-12-17T08:38:22.890Z,1.95
2022-12-17T08:43:42.549Z,1.90
2022-12-17T08:49:02.334Z,2.20
2022-12-17T08:54:22.467Z,2.00
2022-12-17T08:59:41.999Z,2.03
2022-12-17T09:05:01.651Z,2.05
2022-12-17T09:10:21.777Z,2.15
2022-12-17T09:15:41.485Z,2.10
2022-12-17T09:21:01.208Z,2.15
2022-12-17T09:26:20.948Z,2.20
2022-12-17T09:31:40.471Z,1.95
2022-12-17T09:37:02.107Z,2.03
2022-12-17T09:42:31.878Z,2.17
2022-12-17T09:48:17.981Z,2.30
2022-12-17T09:53:44.692Z,1.80
2022-12-17T09:59:04.774Z,1.95
2022-12-17T10:04:29.445Z,2.10
2022-12-17T10:10:06.135Z,2.53
2022-12-17T10:15:26.439Z,2.05
2022-12-17T10:20:54.368Z,2.17
2022-12-17T10:26:14.551Z,1.90
2022-12-17T10:31:37.976Z,2.03
2022-12-17T10:37:04.947Z,2.05
2022-12-17T10:42:48.363Z,1.70
2022-12-17T10:48:08.487Z,2.30
2022-12-17T10:53:39.428Z,1.45
2022-12-17T10:59:07.631Z,1.83
2022-12-17T11:04:56.703Z,1.70
2022-12-17T11:10:16.943Z,1.55
2022-12-17T11:15:39.056Z,1.80
2022-12-17T11:21:05.069Z,1.98
2022-12-17T11:26:28.056Z,1.65
2022-12-17T11:32:06.265Z,1.70
2022-12-17T11:37:37.674Z,1.70
2022-12-17T11:43:16.955Z,1.80
2022-12-17T11:48:46.639Z,1.80
2022-12-17T11:54:40.851Z,1.58
2022-12-17T12:00:34.159Z,1.77
2022-12-17T12:06:26.098Z,1.75
2022-12-17T12:11:51.861Z,1.50
2022-12-17T12:22:44.191Z,1.77
2022-12-17T12:28:09.923Z,1.40
2022-12-17T12:38:57.476Z,1.30
2022-12-17T12:44:18.168Z,1.83
2022-12-17T12:50:10.528Z,1.80
2022-12-17T12:55:30.419Z,1.42
2022-12-17T13:00:58.022Z,1.40
2022-12-17T13:05:59.472Z,1.40
2022-12-17T13:11:28.508Z,1.45
2022-12-17T13:16:52.097Z,1.60
2022-12-17T13:21:53.615Z,1.45
2022-12-17T13:26:54.996Z,1.40
2022-12-17T13:32:11.771Z,1.35
2022-12-17T13:37:31.323Z,1.55
2022-12-17T13:42:34.748Z,1.42
2022-12-17T13:47:38.159Z,1.60
2022-12-17T13:52:39.539Z,1.40
2022-12-17T13:57:44.900Z,1.30
2022-12-17T14:02:46.543Z,1.42
2022-12-17T14:07:51.364Z,1.42
2022-12-17T14:13:04.030Z,1.60
2022-12-17T14:18:05.472Z,1.30
2022-12-17T14:23:28.463Z,1.58
2022-12-17T14:28:35.190Z,1.25
2022-12-17T14:33:37.593Z,1.30
2022-12-17T14:38:39.451Z,1.20
2022-12-17T14:43:40.891Z,1.30
2022-12-17T14:49:00.484Z,1.20
2022-12-17T14:54:14.120Z,1.30
2022-12-17T14:59:35.407Z,1.00
2022-12-17T15:04:37.511Z,1.20
2022-12-17T15:09:38.980Z,1.23
2022-12-17T15:14:40.463Z,1.08
2022-12-17T15:19:41.871Z,1.10
2022-12-17T15:24:46.020Z,1.10
2022-12-17T15:29:47.395Z,1.23
2022-12-17T15:34:49.034Z,1.30
2022-12-17T15:39:51.007Z,1.08
2022-12-17T15:44:52.571Z,1.30
2022-12-17T15:49:53.968Z,1.13
2022-12-17T15:54:55.915Z,1.02
2022-12-17T15:59:57.316Z,1.15
2022-12-17T16:04:58.687Z,1.27
2022-12-17T16:10:04.827Z,1.15
2022-12-17T16:15:07.974Z,1.10
2022-12-17T16:20:09.918Z,1.15
2022-12-17T16:25:11.367Z,1.40
2022-12-17T16:30:13.526Z,1.60
2022-12-17T16:35:14.932Z,1.33
2022-12-17T16:40:16.312Z,1.15
2022-12-17T16:45:17.695Z,1.20
2022-12-17T16:50:19.092Z,1.38
2022-12-17T16:55:20.470Z,1.38
2022-12-17T17:00:21.877Z,1.45
2022-12-17T17:05:23.272Z,1.30
2022-12-17T17:10:24.862Z,1.38
2022-12-17T17:15:26.241Z,1.40
2022-12-17T17:20:27.646Z,1.40
2022-12-17T17:25:44.327Z,1.40
2022-12-17T17:30:50.433Z,1.30
2022-12-17T17:35:51.833Z,1.45
2022-12-17T17:40:57.149Z,1.30
2022-12-17T17:46:07.886Z,1.30
2022-12-17T17:51:18.050Z,1.38
2022-12-17T17:56:21.633Z,1.20
2022-12-17T18:01:24.680Z,1.40
2022-12-17T18:06:26.299Z,1.23
2022-12-17T18:11:28.548Z,1.60
2022-12-17T18:16:32.150Z,1.40
2022-12-17T18:21:33.680Z,1.70
2022-12-17T18:26:37.798Z,1.45
2022-12-17T18:31:39.303Z,1.67
2022-12-17T18:36:41.612Z,1.60
2022-12-17T18:42:01.880Z,1.52
2022-12-17T18:47:03.305Z,1.50
2022-12-17T18:52:05.029Z,1.73
2022-12-17T18:57:06.392Z,1.50
2022-12-17T19:02:14.065Z,1.52
2022-12-17T19:07:15.543Z,1.50
2022-12-17T19:12:16.932Z,1.38
2022-12-17T19:17:18.296Z,1.67
2022-12-17T19:22:19.659Z,1.58
2022-12-17T19:27:21.038Z,1.42
2022-12-17T19:32:23.403Z,1.42
2022-12-17T19:37:24.821Z,1.60
2022-12-17T19:42:31.941Z,1.80
2022-12-17T19:47:38.078Z,1.77
2022-12-17T19:52:39.575Z,1.52
2022-12-17T19:57:40.948Z,1.48
2022-12-17T20:02:42.409Z,1.70
2022-12-17T20:07:43.811Z,1.65
2022-12-17T20:12:45.179Z,1.50
2022-12-17T20:17:46.543Z,1.70
2022-12-17T20:22:47.907Z,1.55
2022-12-17T20:27:49.319Z,1.80
2022-12-17T20:32:53.483Z,1.80
2022-12-17T20:37:54.863Z,1.63
2022-12-17T20:42:56.231Z,1.80
2022-12-17T20:47:57.603Z,1.92
2022-12-17T20:52:58.992Z,1.95
2022-12-17T20:58:00.369Z,1.88
2022-12-17T21:03:02.147Z,1.90
2022-12-17T21:08:03.713Z,1.90
2022-12-17T21:13:27.864Z,2.00
2022-12-17T21:18:29.591Z,2.13
2022-12-17T21:23:31.198Z,1.73
2022-12-17T21:28:32.996Z,1.98
2022-12-17T21:33:34.401Z,1.88
2022-12-17T21:38:36.305Z,1.90
2022-12-17T21:43:38.012Z,1.90
2022-12-17T21:48:42.230Z,2.13
2022-12-17T21:53:43.911Z,2.08
2022-12-17T21:58:45.661Z,1.65
2022-12-17T22:03:53.316Z,1.85
2022-12-17T22:08:58.544Z,1.90
2022-12-17T22:14:16.941Z,1.85
2022-12-17T22:19:22.611Z,1.98
2022-12-17T22:24:24.726Z,1.95
2022-12-17T22:30:04.927Z,1.77
2022-12-17T22:37:56.475Z,2.03
2022-12-17T22:44:35.298Z,1.95
2022-12-17T22:45:49.550Z,1.67
2022-12-17T22:50:51.013Z,1.70
2022-12-17T22:55:55.604Z,1.80
2022-12-17T23:00:59.072Z,1.80
2022-12-17T23:06:11.591Z,1.88
2022-12-17T23:11:17.967Z,1.50
2022-12-17T23:16:19.429Z,1.60
2022-12-17T23:21:24.677Z,1.65
2022-12-17T23:26:28.069Z,1.60
2022-12-17T23:31:32.754Z,1.70
2022-12-17T23:36:34.214Z,1.50
2022-12-17T23:41:35.577Z,1.67
2022-12-17T23:46:36.980Z,1.60
2022-12-17T23:51:38.387Z,1.75
2022-12-17T23:56:39.775Z,1.25
